sensor_id;sensor_type;location;lat;lon;timestamp;temperature;humidity
27413;DHT22;14871;52.702;5.230;2024-02-21T00:01:47;11.50;99.90
27413;DHT22;14871;52.702;5.230;2024-02-21T00:04:13;11.50;99.90
27413;DHT22;14871;52.702;5.230;2024-02-21T00:06:38;11.50;99.90
27413;DHT22;14871;52.702;5.230;2024-02-21T00:09:04;11.40;99.90
27413;DHT22;14871;52.702;5.230;2024-02-21T00:11:31;11.30;99.90
27413;DHT22;14871;52.702;5.230;2024-02-21T00:13:57;11.30;99.90
27413;DHT22;14871;52.702;5.230;2024-02-21T00:16:22;11.50;99.90
27413;DHT22;14871;52.702;5.230;2024-02-21T00:18:48;11.50;99.90
27413;DHT22;14871;52.702;5.230;2024-02-21T00:21:15;11.40;99.90
27413;DHT22;14871;52.702;5.230;2024-02-21T00:23:46;11.40;99.90
27413;DHT22;14871;52.702;5.230;2024-02-21T00:26:13;11.30;99.90
27413;DHT22;14871;52.702;5.230;2024-02-21T00:28:42;11.40;99.90
27413;DHT22;14871;52.702;5.230;2024-02-21T00:31:09;11.50;99.90
27413;DHT22;14871;52.702;5.230;2024-02-21T00:33:34;11.40;99.90
27413;DHT22;14871;52.702;5.230;2024-02-21T00:36:00;11.60;99.90
27413;DHT22;14871;52.702;5.230;2024-02-21T00:38:25;11.40;99.90
27413;DHT22;14871;52.702;5.230;2024-02-21T00:40:51;11.30;99.90
27413;DHT22;14871;52.702;5.230;2024-02-21T00:43:17;11.40;99.90
27413;DHT22;14871;52.702;5.230;2024-02-21T00:45:44;11.50;99.90
27413;DHT22;14871;52.702;5.230;2024-02-21T00:48:09;11.40;99.90
27413;DHT22;14871;52.702;5.230;2024-02-21T00:50:35;11.40;99.90
27413;DHT22;14871;52.702;5.230;2024-02-21T00:53:02;11.50;99.90
27413;DHT22;14871;52.702;5.230;2024-02-21T00:55:28;11.40;99.90
27413;DHT22;14871;52.702;5.230;2024-02-21T00:57:54;11.50;99.90
27413;DHT22;14871;52.702;5.230;2024-02-21T01:00:20;11.50;99.90
27413;DHT22;14871;52.702;5.230;2024-02-21T01:02:46;11.60;99.90
27413;DHT22;14871;52.702;5.230;2024-02-21T01:05:12;11.40;99.90
27413;DHT22;14871;52.702;5.230;2024-02-21T01:07:38;11.40;99.90
27413;DHT22;14871;52.702;5.230;2024-02-21T01:10:04;11.30;99.90
27413;DHT22;14871;52.702;5.230;2024-02-21T01:12:30;11.40;99.90
27413;DHT22;14871;52.702;5.230;2024-02-21T01:14:57;11.50;99.90
27413;DHT22;14871;52.702;5.230;2024-02-21T01:17:22;11.50;99.90
27413;DHT22;14871;52.702;5.230;2024-02-21T01:19:48;11.50;99.90
27413;DHT22;14871;52.702;5.230;2024-02-21T01:22:14;11.30;99.90
27413;DHT22;14871;52.702;5.230;2024-02-21T01:24:41;11.50;99.90
27413;DHT22;14871;52.702;5.230;2024-02-21T01:27:07;11.60;99.90
27413;DHT22;14871;52.702;5.230;2024-02-21T01:29:32;11.40;99.90
27413;DHT22;14871;52.702;5.230;2024-02-21T01:31:58;11.40;99.90
27413;DHT22;14871;52.702;5.230;2024-02-21T01:34:24;11.40;99.90
27413;DHT22;14871;52.702;5.230;2024-02-21T01:36:51;11.40;99.90
27413;DHT22;14871;52.702;5.230;2024-02-21T01:39:17;11.30;99.90
27413;DHT22;14871;52.702;5.230;2024-02-21T01:41:43;11.60;99.90
27413;DHT22;14871;52.702;5.230;2024-02-21T01:44:08;11.40;99.90
27413;DHT22;14871;52.702;5.230;2024-02-21T01:46:35;11.30;99.90
27413;DHT22;14871;52.702;5.230;2024-02-21T01:49:00;11.40;99.90
27413;DHT22;14871;52.702;5.230;2024-02-21T01:51:27;11.30;99.90
27413;DHT22;14871;52.702;5.230;2024-02-21T01:53:55;11.40;99.90
27413;DHT22;14871;52.702;5.230;2024-02-21T01:56:21;11.40;99.90
27413;DHT22;14871;52.702;5.230;2024-02-21T01:58:48;11.40;99.90
27413;DHT22;14871;52.702;5.230;2024-02-21T02:01:14;11.50;99.90
27413;DHT22;14871;52.702;5.230;2024-02-21T02:03:40;11.60;99.90
27413;DHT22;14871;52.702;5.230;2024-02-21T02:06:06;11.40;99.90
27413;DHT22;14871;52.702;5.230;2024-02-21T02:08:32;11.40;99.90
27413;DHT22;14871;52.702;5.230;2024-02-21T02:11:00;11.40;99.90
27413;DHT22;14871;52.702;5.230;2024-02-21T02:13:26;11.30;99.90
27413;DHT22;14871;52.702;5.230;2024-02-21T02:15:52;11.30;99.90
27413;DHT22;14871;52.702;5.230;2024-02-21T02:18:20;11.30;99.90
27413;DHT22;14871;52.702;5.230;2024-02-21T02:20:46;11.30;99.90
27413;DHT22;14871;52.702;5.230;2024-02-21T02:23:25;11.40;99.90
27413;DHT22;14871;52.702;5.230;2024-02-21T02:25:53;11.40;99.90
27413;DHT22;14871;52.702;5.230;2024-02-21T02:28:20;11.50;99.90
27413;DHT22;14871;52.702;5.230;2024-02-21T02:30:47;11.30;99.90
27413;DHT22;14871;52.702;5.230;2024-02-21T02:33:13;11.30;99.90
27413;DHT22;14871;52.702;5.230;2024-02-21T02:35:39;11.20;99.90
27413;DHT22;14871;52.702;5.230;2024-02-21T02:38:05;11.20;99.90
27413;DHT22;14871;52.702;5.230;2024-02-21T02:40:32;11.10;99.90
27413;DHT22;14871;52.702;5.230;2024-02-21T02:42:58;11.10;99.90
27413;DHT22;14871;52.702;5.230;2024-02-21T02:45:24;11.00;99.90
27413;DHT22;14871;52.702;5.230;2024-02-21T02:47:54;11.30;99.90
27413;DHT22;14871;52.702;5.230;2024-02-21T02:50:20;11.30;99.90
27413;DHT22;14871;52.702;5.230;2024-02-21T02:52:46;11.10;99.90
27413;DHT22;14871;52.702;5.230;2024-02-21T02:55:13;11.10;99.90
27413;DHT22;14871;52.702;5.230;2024-02-21T02:57:39;11.20;99.90
27413;DHT22;14871;52.702;5.230;2024-02-21T03:00:06;11.20;99.90
27413;DHT22;14871;52.702;5.230;2024-02-21T03:02:32;11.10;99.90
27413;DHT22;14871;52.702;5.230;2024-02-21T03:04:58;11.10;99.90
27413;DHT22;14871;52.702;5.230;2024-02-21T03:07:25;11.20;99.90
27413;DHT22;14871;52.702;5.230;2024-02-21T03:09:50;11.20;99.90
27413;DHT22;14871;52.702;5.230;2024-02-21T03:12:16;11.10;99.90
27413;DHT22;14871;52.702;5.230;2024-02-21T03:14:52;11.20;99.90
27413;DHT22;14871;52.702;5.230;2024-02-21T03:17:18;11.20;99.90
27413;DHT22;14871;52.702;5.230;2024-02-21T03:19:44;11.10;99.90
27413;DHT22;14871;52.702;5.230;2024-02-21T03:22:09;11.10;99.90
27413;DHT22;14871;52.702;5.230;2024-02-21T03:24:35;11.20;99.90
27413;DHT22;14871;52.702;5.230;2024-02-21T03:27:05;11.20;99.90
27413;DHT22;14871;52.702;5.230;2024-02-21T03:29:30;11.10;99.90
27413;DHT22;14871;52.702;5.230;2024-02-21T03:31:56;11.10;99.90
27413;DHT22;14871;52.702;5.230;2024-02-21T03:34:22;10.90;99.90
27413;DHT22;14871;52.702;5.230;2024-02-21T03:36:47;11.00;99.90
27413;DHT22;14871;52.702;5.230;2024-02-21T03:39:13;11.00;99.90
27413;DHT22;14871;52.702;5.230;2024-02-21T03:41:40;11.00;99.90
27413;DHT22;14871;52.702;5.230;2024-02-21T03:44:05;11.20;99.90
27413;DHT22;14871;52.702;5.230;2024-02-21T03:46:31;11.30;99.90
27413;DHT22;14871;52.702;5.230;2024-02-21T03:48:57;11.20;99.90
27413;DHT22;14871;52.702;5.230;2024-02-21T03:51:23;11.10;99.90
27413;DHT22;14871;52.702;5.230;2024-02-21T03:53:49;11.20;99.90
27413;DHT22;14871;52.702;5.230;2024-02-21T03:56:14;11.10;99.90
27413;DHT22;14871;52.702;5.230;2024-02-21T03:58:40;11.10;99.90
27413;DHT22;14871;52.702;5.230;2024-02-21T04:01:07;11.00;99.90
27413;DHT22;14871;52.702;5.230;2024-02-21T04:03:32;11.10;99.90
27413;DHT22;14871;52.702;5.230;2024-02-21T04:05:59;11.20;99.90
27413;DHT22;14871;52.702;5.230;2024-02-21T04:08:25;11.10;99.90
27413;DHT22;14871;52.702;5.230;2024-02-21T04:10:52;11.20;99.90
27413;DHT22;14871;52.702;5.230;2024-02-21T04:13:18;11.30;99.90
27413;DHT22;14871;52.702;5.230;2024-02-21T04:15:44;11.30;99.90
27413;DHT22;14871;52.702;5.230;2024-02-21T04:18:09;11.20;99.90
27413;DHT22;14871;52.702;5.230;2024-02-21T04:20:35;11.30;99.90
27413;DHT22;14871;52.702;5.230;2024-02-21T04:23:01;11.20;99.90
27413;DHT22;14871;52.702;5.230;2024-02-21T04:25:28;11.30;99.90
27413;DHT22;14871;52.702;5.230;2024-02-21T04:27:53;11.30;99.90
27413;DHT22;14871;52.702;5.230;2024-02-21T04:30:19;11.50;99.90
27413;DHT22;14871;52.702;5.230;2024-02-21T04:32:45;11.40;99.90
27413;DHT22;14871;52.702;5.230;2024-02-21T04:35:10;11.50;99.90
27413;DHT22;14871;52.702;5.230;2024-02-21T04:37:36;11.50;99.90
27413;DHT22;14871;52.702;5.230;2024-02-21T04:40:01;11.40;99.90
27413;DHT22;14871;52.702;5.230;2024-02-21T04:42:27;11.40;99.90
27413;DHT22;14871;52.702;5.230;2024-02-21T04:44:53;11.30;99.90
27413;DHT22;14871;52.702;5.230;2024-02-21T04:47:19;11.40;99.90
27413;DHT22;14871;52.702;5.230;2024-02-21T04:49:51;11.30;99.90
27413;DHT22;14871;52.702;5.230;2024-02-21T04:52:18;11.30;99.90
27413;DHT22;14871;52.702;5.230;2024-02-21T04:54:44;11.50;99.90
27413;DHT22;14871;52.702;5.230;2024-02-21T04:57:09;11.50;99.90
27413;DHT22;14871;52.702;5.230;2024-02-21T04:59:45;11.50;99.90
27413;DHT22;14871;52.702;5.230;2024-02-21T05:02:11;11.30;99.90
27413;DHT22;14871;52.702;5.230;2024-02-21T05:04:37;11.20;99.90
27413;DHT22;14871;52.702;5.230;2024-02-21T05:07:04;11.30;99.90
27413;DHT22;14871;52.702;5.230;2024-02-21T05:09:29;11.30;99.90
27413;DHT22;14871;52.702;5.230;2024-02-21T05:11:55;11.30;99.90
27413;DHT22;14871;52.702;5.230;2024-02-21T05:14:22;11.40;99.90
27413;DHT22;14871;52.702;5.230;2024-02-21T05:16:47;11.40;99.90
27413;DHT22;14871;52.702;5.230;2024-02-21T05:19:14;11.40;99.90
27413;DHT22;14871;52.702;5.230;2024-02-21T05:21:41;11.30;99.90
27413;DHT22;14871;52.702;5.230;2024-02-21T05:24:07;11.30;99.90
27413;DHT22;14871;52.702;5.230;2024-02-21T05:26:32;11.40;99.90
27413;DHT22;14871;52.702;5.230;2024-02-21T05:28:58;11.40;99.90
27413;DHT22;14871;52.702;5.230;2024-02-21T05:31:25;11.40;99.90
27413;DHT22;14871;52.702;5.230;2024-02-21T05:33:51;11.30;99.90
27413;DHT22;14871;52.702;5.230;2024-02-21T05:36:17;11.20;99.90
27413;DHT22;14871;52.702;5.230;2024-02-21T05:38:42;11.30;99.90
27413;DHT22;14871;52.702;5.230;2024-02-21T05:41:08;11.40;99.90
27413;DHT22;14871;52.702;5.230;2024-02-21T05:43:34;11.30;99.90
27413;DHT22;14871;52.702;5.230;2024-02-21T05:45:59;11.40;99.90
27413;DHT22;14871;52.702;5.230;2024-02-21T05:48:25;11.40;99.90
27413;DHT22;14871;52.702;5.230;2024-02-21T05:50:51;11.40;99.90
27413;DHT22;14871;52.702;5.230;2024-02-21T05:53:18;11.60;99.90
27413;DHT22;14871;52.702;5.230;2024-02-21T05:55:43;11.40;99.90
27413;DHT22;14871;52.702;5.230;2024-02-21T05:58:09;11.50;99.90
27413;DHT22;14871;52.702;5.230;2024-02-21T06:00:39;11.40;99.90
27413;DHT22;14871;52.702;5.230;2024-02-21T06:03:04;11.60;99.90
27413;DHT22;14871;52.702;5.230;2024-02-21T06:05:30;11.50;99.90
27413;DHT22;14871;52.702;5.230;2024-02-21T06:07:57;11.40;99.90
27413;DHT22;14871;52.702;5.230;2024-02-21T06:10:23;11.30;99.90
27413;DHT22;14871;52.702;5.230;2024-02-21T06:12:48;11.20;99.90
27413;DHT22;14871;52.702;5.230;2024-02-21T06:15:14;11.00;99.90
27413;DHT22;14871;52.702;5.230;2024-02-21T06:17:40;11.20;99.90
27413;DHT22;14871;52.702;5.230;2024-02-21T06:20:06;11.30;99.90
27413;DHT22;14871;52.702;5.230;2024-02-21T06:22:31;11.20;99.90
27413;DHT22;14871;52.702;5.230;2024-02-21T06:24:57;11.30;99.90
27413;DHT22;14871;52.702;5.230;2024-02-21T06:27:24;11.40;99.90
27413;DHT22;14871;52.702;5.230;2024-02-21T06:29:49;11.40;99.90
27413;DHT22;14871;52.702;5.230;2024-02-21T06:32:15;11.30;99.90
27413;DHT22;14871;52.702;5.230;2024-02-21T06:34:44;11.40;99.90
27413;DHT22;14871;52.702;5.230;2024-02-21T06:37:10;11.50;99.90
27413;DHT22;14871;52.702;5.230;2024-02-21T06:39:37;11.50;99.90
27413;DHT22;14871;52.702;5.230;2024-02-21T06:42:04;11.40;99.90
27413;DHT22;14871;52.702;5.230;2024-02-21T06:44:30;11.50;99.90
27413;DHT22;14871;52.702;5.230;2024-02-21T06:46:57;11.20;99.90
27413;DHT22;14871;52.702;5.230;2024-02-21T06:49:24;11.40;99.90
27413;DHT22;14871;52.702;5.230;2024-02-21T06:51:50;11.50;99.90
27413;DHT22;14871;52.702;5.230;2024-02-21T06:54:15;11.50;99.90
27413;DHT22;14871;52.702;5.230;2024-02-21T06:56:41;11.40;99.90
27413;DHT22;14871;52.702;5.230;2024-02-21T06:59:06;11.50;99.90
27413;DHT22;14871;52.702;5.230;2024-02-21T07:01:32;11.50;99.90
27413;DHT22;14871;52.702;5.230;2024-02-21T07:03:58;11.50;99.90
27413;DHT22;14871;52.702;5.230;2024-02-21T07:06:24;11.70;99.90
27413;DHT22;14871;52.702;5.230;2024-02-21T07:08:49;11.50;99.90
27413;DHT22;14871;52.702;5.230;2024-02-21T07:11:15;11.50;99.90
27413;DHT22;14871;52.702;5.230;2024-02-21T07:13:41;11.40;99.90
27413;DHT22;14871;52.702;5.230;2024-02-21T07:16:07;11.50;99.90
27413;DHT22;14871;52.702;5.230;2024-02-21T07:18:33;11.50;99.90
27413;DHT22;14871;52.702;5.230;2024-02-21T07:20:59;11.50;99.90
27413;DHT22;14871;52.702;5.230;2024-02-21T07:23:24;11.40;99.90
27413;DHT22;14871;52.702;5.230;2024-02-21T07:25:50;11.50;99.90
27413;DHT22;14871;52.702;5.230;2024-02-21T07:28:16;11.60;99.90
27413;DHT22;14871;52.702;5.230;2024-02-21T07:30:42;11.50;99.90
27413;DHT22;14871;52.702;5.230;2024-02-21T07:33:08;11.40;99.90
27413;DHT22;14871;52.702;5.230;2024-02-21T07:35:34;11.40;99.90
27413;DHT22;14871;52.702;5.230;2024-02-21T07:37:59;11.60;99.90
27413;DHT22;14871;52.702;5.230;2024-02-21T07:40:25;11.60;99.90
27413;DHT22;14871;52.702;5.230;2024-02-21T07:42:51;11.40;99.90
27413;DHT22;14871;52.702;5.230;2024-02-21T07:45:16;11.50;99.90
27413;DHT22;14871;52.702;5.230;2024-02-21T07:47:43;11.40;99.90
27413;DHT22;14871;52.702;5.230;2024-02-21T07:50:09;11.30;99.90
27413;DHT22;14871;52.702;5.230;2024-02-21T07:52:35;11.40;99.90
27413;DHT22;14871;52.702;5.230;2024-02-21T07:55:00;11.30;99.90
27413;DHT22;14871;52.702;5.230;2024-02-21T07:57:26;11.40;99.90
27413;DHT22;14871;52.702;5.230;2024-02-21T07:59:52;11.50;99.90
27413;DHT22;14871;52.702;5.230;2024-02-21T08:02:17;11.40;99.90
27413;DHT22;14871;52.702;5.230;2024-02-21T08:04:43;11.40;99.90
27413;DHT22;14871;52.702;5.230;2024-02-21T08:07:09;11.30;99.90
27413;DHT22;14871;52.702;5.230;2024-02-21T08:09:35;11.50;99.90
27413;DHT22;14871;52.702;5.230;2024-02-21T08:12:04;11.60;99.90
27413;DHT22;14871;52.702;5.230;2024-02-21T08:14:29;11.60;99.90
27413;DHT22;14871;52.702;5.230;2024-02-21T08:16:55;11.40;99.90
27413;DHT22;14871;52.702;5.230;2024-02-21T08:19:21;11.50;99.90
27413;DHT22;14871;52.702;5.230;2024-02-21T08:21:48;11.60;99.90
27413;DHT22;14871;52.702;5.230;2024-02-21T08:24:16;11.60;99.90
27413;DHT22;14871;52.702;5.230;2024-02-21T08:26:42;11.60;99.90
27413;DHT22;14871;52.702;5.230;2024-02-21T08:29:10;11.60;99.90
27413;DHT22;14871;52.702;5.230;2024-02-21T08:31:35;11.50;99.90
27413;DHT22;14871;52.702;5.230;2024-02-21T08:34:01;11.50;99.90
27413;DHT22;14871;52.702;5.230;2024-02-21T08:38:56;11.40;99.90
27413;DHT22;14871;52.702;5.230;2024-02-21T08:41:22;11.50;99.90
27413;DHT22;14871;52.702;5.230;2024-02-21T08:43:52;11.60;99.90
27413;DHT22;14871;52.702;5.230;2024-02-21T08:46:19;11.60;99.90
27413;DHT22;14871;52.702;5.230;2024-02-21T08:48:46;11.50;99.90
27413;DHT22;14871;52.702;5.230;2024-02-21T08:51:13;11.60;99.90
27413;DHT22;14871;52.702;5.230;2024-02-21T08:53:39;11.80;99.90
27413;DHT22;14871;52.702;5.230;2024-02-21T08:56:05;11.60;99.90
27413;DHT22;14871;52.702;5.230;2024-02-21T08:58:32;11.70;99.90
27413;DHT22;14871;52.702;5.230;2024-02-21T09:00:58;11.50;99.90
27413;DHT22;14871;52.702;5.230;2024-02-21T09:03:24;11.60;99.90
27413;DHT22;14871;52.702;5.230;2024-02-21T09:05:50;11.70;99.90
27413;DHT22;14871;52.702;5.230;2024-02-21T09:08:16;11.70;99.90
27413;DHT22;14871;52.702;5.230;2024-02-21T09:10:41;11.60;99.90
27413;DHT22;14871;52.702;5.230;2024-02-21T09:13:07;11.50;99.90
27413;DHT22;14871;52.702;5.230;2024-02-21T09:15:34;11.30;99.90
27413;DHT22;14871;52.702;5.230;2024-02-21T09:17:59;11.50;99.90
27413;DHT22;14871;52.702;5.230;2024-02-21T09:20:25;11.40;99.90
27413;DHT22;14871;52.702;5.230;2024-02-21T09:22:51;11.40;99.90
27413;DHT22;14871;52.702;5.230;2024-02-21T09:25:17;11.50;99.90
27413;DHT22;14871;52.702;5.230;2024-02-21T09:27:44;11.60;99.90
27413;DHT22;14871;52.702;5.230;2024-02-21T09:30:11;11.50;99.90
27413;DHT22;14871;52.702;5.230;2024-02-21T09:32:37;11.30;99.90
27413;DHT22;14871;52.702;5.230;2024-02-21T09:35:03;11.50;99.90
27413;DHT22;14871;52.702;5.230;2024-02-21T09:37:30;11.50;99.90
27413;DHT22;14871;52.702;5.230;2024-02-21T09:39:56;11.70;99.90
27413;DHT22;14871;52.702;5.230;2024-02-21T09:42:29;11.70;99.90
27413;DHT22;14871;52.702;5.230;2024-02-21T09:44:58;11.40;99.90
27413;DHT22;14871;52.702;5.230;2024-02-21T09:47:34;11.40;99.90
27413;DHT22;14871;52.702;5.230;2024-02-21T09:50:05;11.40;99.90
27413;DHT22;14871;52.702;5.230;2024-02-21T09:52:31;11.70;99.90
27413;DHT22;14871;52.702;5.230;2024-02-21T09:54:58;11.50;99.90
27413;DHT22;14871;52.702;5.230;2024-02-21T09:57:24;11.60;99.90
27413;DHT22;14871;52.702;5.230;2024-02-21T09:59:52;11.60;99.90
27413;DHT22;14871;52.702;5.230;2024-02-21T10:02:18;11.40;99.90
27413;DHT22;14871;52.702;5.230;2024-02-21T10:04:45;11.50;99.90
27413;DHT22;14871;52.702;5.230;2024-02-21T10:07:11;11.70;99.90
27413;DHT22;14871;52.702;5.230;2024-02-21T10:09:38;11.70;99.90
27413;DHT22;14871;52.702;5.230;2024-02-21T10:12:10;11.90;99.90
27413;DHT22;14871;52.702;5.230;2024-02-21T10:14:37;11.70;99.90
27413;DHT22;14871;52.702;5.230;2024-02-21T10:17:03;11.80;99.90
27413;DHT22;14871;52.702;5.230;2024-02-21T10:19:34;11.50;99.90
27413;DHT22;14871;52.702;5.230;2024-02-21T10:22:09;11.50;99.90
27413;DHT22;14871;52.702;5.230;2024-02-21T10:24:36;11.50;99.90
27413;DHT22;14871;52.702;5.230;2024-02-21T10:27:07;11.70;99.90
27413;DHT22;14871;52.702;5.230;2024-02-21T10:29:39;11.60;99.90
27413;DHT22;14871;52.702;5.230;2024-02-21T10:32:13;11.80;99.90
27413;DHT22;14871;52.702;5.230;2024-02-21T10:34:41;11.60;99.90
27413;DHT22;14871;52.702;5.230;2024-02-21T10:37:09;11.70;99.90
27413;DHT22;14871;52.702;5.230;2024-02-21T10:39:39;11.70;99.90
27413;DHT22;14871;52.702;5.230;2024-02-21T10:42:06;11.60;99.90
27413;DHT22;14871;52.702;5.230;2024-02-21T10:44:38;11.60;99.90
27413;DHT22;14871;52.702;5.230;2024-02-21T10:47:10;11.60;99.90
27413;DHT22;14871;52.702;5.230;2024-02-21T10:49:40;11.60;99.90
27413;DHT22;14871;52.702;5.230;2024-02-21T10:52:25;11.50;99.90
27413;DHT22;14871;52.702;5.230;2024-02-21T10:55:37;11.70;99.90
27413;DHT22;14871;52.702;5.230;2024-02-21T10:57:43;11.50;99.90
27413;DHT22;14871;52.702;5.230;2024-02-21T11:00:11;11.60;99.90
27413;DHT22;14871;52.702;5.230;2024-02-21T11:02:38;11.50;99.90
27413;DHT22;14871;52.702;5.230;2024-02-21T11:05:05;11.70;99.90
27413;DHT22;14871;52.702;5.230;2024-02-21T11:07:37;11.60;99.90
27413;DHT22;14871;52.702;5.230;2024-02-21T11:10:03;11.60;99.90
27413;DHT22;14871;52.702;5.230;2024-02-21T11:12:32;11.50;99.90
27413;DHT22;14871;52.702;5.230;2024-02-21T11:15:06;11.50;99.90
27413;DHT22;14871;52.702;5.230;2024-02-21T11:17:31;11.70;99.90
27413;DHT22;14871;52.702;5.230;2024-02-21T11:19:57;11.50;99.90
27413;DHT22;14871;52.702;5.230;2024-02-21T11:22:25;11.50;99.90
27413;DHT22;14871;52.702;5.230;2024-02-21T11:24:54;11.50;99.90
27413;DHT22;14871;52.702;5.230;2024-02-21T11:27:22;11.30;99.90
27413;DHT22;14871;52.702;5.230;2024-02-21T11:29:57;11.60;99.90
27413;DHT22;14871;52.702;5.230;2024-02-21T11:32:25;11.80;99.90
27413;DHT22;14871;52.702;5.230;2024-02-21T11:34:58;11.60;99.90
27413;DHT22;14871;52.702;5.230;2024-02-21T11:37:31;11.70;99.90
27413;DHT22;14871;52.702;5.230;2024-02-21T11:39:59;11.70;99.90
27413;DHT22;14871;52.702;5.230;2024-02-21T11:42:26;11.60;99.90
27413;DHT22;14871;52.702;5.230;2024-02-21T11:44:53;11.60;99.90
27413;DHT22;14871;52.702;5.230;2024-02-21T11:47:19;11.60;99.90
27413;DHT22;14871;52.702;5.230;2024-02-21T11:49:48;11.70;99.90
27413;DHT22;14871;52.702;5.230;2024-02-21T11:52:16;11.70;99.90
27413;DHT22;14871;52.702;5.230;2024-02-21T11:54:44;11.60;99.90
27413;DHT22;14871;52.702;5.230;2024-02-21T11:57:10;11.70;99.90
27413;DHT22;14871;52.702;5.230;2024-02-21T11:59:40;11.50;99.90
27413;DHT22;14871;52.702;5.230;2024-02-21T12:02:06;11.60;99.90
27413;DHT22;14871;52.702;5.230;2024-02-21T12:04:33;11.30;99.90
27413;DHT22;14871;52.702;5.230;2024-02-21T12:06:59;11.50;99.90
27413;DHT22;14871;52.702;5.230;2024-02-21T12:09:25;11.40;99.90
27413;DHT22;14871;52.702;5.230;2024-02-21T12:11:58;11.50;99.90
27413;DHT22;14871;52.702;5.230;2024-02-21T12:14:25;11.70;99.90
27413;DHT22;14871;52.702;5.230;2024-02-21T12:16:51;11.60;99.90
27413;DHT22;14871;52.702;5.230;2024-02-21T12:19:17;11.70;99.90
27413;DHT22;14871;52.702;5.230;2024-02-21T12:21:43;11.90;99.90
27413;DHT22;14871;52.702;5.230;2024-02-21T12:24:16;11.60;99.90
27413;DHT22;14871;52.702;5.230;2024-02-21T12:26:42;11.90;99.90
27413;DHT22;14871;52.702;5.230;2024-02-21T12:29:08;11.70;99.90
27413;DHT22;14871;52.702;5.230;2024-02-21T12:31:38;11.90;99.90
27413;DHT22;14871;52.702;5.230;2024-02-21T12:34:04;12.20;99.90
27413;DHT22;14871;52.702;5.230;2024-02-21T12:36:31;12.20;99.90
27413;DHT22;14871;52.702;5.230;2024-02-21T12:38:57;12.20;99.90
27413;DHT22;14871;52.702;5.230;2024-02-21T12:41:23;12.20;99.90
27413;DHT22;14871;52.702;5.230;2024-02-21T12:43:51;12.10;99.90
27413;DHT22;14871;52.702;5.230;2024-02-21T12:46:16;12.40;99.90
27413;DHT22;14871;52.702;5.230;2024-02-21T12:48:42;12.30;99.90
27413;DHT22;14871;52.702;5.230;2024-02-21T12:51:08;12.10;99.90
27413;DHT22;14871;52.702;5.230;2024-02-21T12:53:33;11.90;99.90
27413;DHT22;14871;52.702;5.230;2024-02-21T12:56:00;12.00;99.90
27413;DHT22;14871;52.702;5.230;2024-02-21T12:58:25;12.10;99.90
27413;DHT22;14871;52.702;5.230;2024-02-21T13:00:51;12.00;99.90
27413;DHT22;14871;52.702;5.230;2024-02-21T13:03:16;12.00;99.90
27413;DHT22;14871;52.702;5.230;2024-02-21T13:05:42;12.10;99.90
27413;DHT22;14871;52.702;5.230;2024-02-21T13:08:11;12.00;99.90
27413;DHT22;14871;52.702;5.230;2024-02-21T13:10:37;12.10;99.90
27413;DHT22;14871;52.702;5.230;2024-02-21T13:13:03;12.10;99.90
27413;DHT22;14871;52.702;5.230;2024-02-21T13:15:29;12.20;99.90
27413;DHT22;14871;52.702;5.230;2024-02-21T13:17:56;12.10;99.90
27413;DHT22;14871;52.702;5.230;2024-02-21T13:20:22;12.10;99.90
27413;DHT22;14871;52.702;5.230;2024-02-21T13:22:48;12.20;99.90
27413;DHT22;14871;52.702;5.230;2024-02-21T13:25:14;12.00;99.90
27413;DHT22;14871;52.702;5.230;2024-02-21T13:27:45;12.00;99.90
27413;DHT22;14871;52.702;5.230;2024-02-21T13:30:11;11.80;99.90
27413;DHT22;14871;52.702;5.230;2024-02-21T13:32:38;11.80;99.90
27413;DHT22;14871;52.702;5.230;2024-02-21T13:35:04;12.00;99.90
27413;DHT22;14871;52.702;5.230;2024-02-21T13:37:29;12.00;99.90
27413;DHT22;14871;52.702;5.230;2024-02-21T13:39:55;11.70;99.90
27413;DHT22;14871;52.702;5.230;2024-02-21T13:42:21;11.90;99.90
27413;DHT22;14871;52.702;5.230;2024-02-21T13:44:47;11.80;99.90
27413;DHT22;14871;52.702;5.230;2024-02-21T13:47:14;11.70;99.90
27413;DHT22;14871;52.702;5.230;2024-02-21T13:49:40;11.70;99.90
27413;DHT22;14871;52.702;5.230;2024-02-21T13:52:06;11.80;99.90
27413;DHT22;14871;52.702;5.230;2024-02-21T13:54:32;11.80;99.90
27413;DHT22;14871;52.702;5.230;2024-02-21T13:56:57;11.70;99.90
27413;DHT22;14871;52.702;5.230;2024-02-21T13:59:23;11.80;99.90
27413;DHT22;14871;52.702;5.230;2024-02-21T14:01:49;11.90;99.90
27413;DHT22;14871;52.702;5.230;2024-02-21T14:04:14;11.60;99.90
27413;DHT22;14871;52.702;5.230;2024-02-21T14:06:40;11.60;99.90
27413;DHT22;14871;52.702;5.230;2024-02-21T14:09:09;11.60;99.90
27413;DHT22;14871;52.702;5.230;2024-02-21T14:11:35;11.80;99.90
27413;DHT22;14871;52.702;5.230;2024-02-21T14:14:01;11.90;99.90
27413;DHT22;14871;52.702;5.230;2024-02-21T14:16:27;11.80;99.90
27413;DHT22;14871;52.702;5.230;2024-02-21T14:18:52;12.00;99.90
27413;DHT22;14871;52.702;5.230;2024-02-21T14:21:19;11.90;99.90
27413;DHT22;14871;52.702;5.230;2024-02-21T14:23:45;11.90;99.90
27413;DHT22;14871;52.702;5.230;2024-02-21T14:26:11;11.90;99.90
27413;DHT22;14871;52.702;5.230;2024-02-21T14:28:37;11.90;99.90
27413;DHT22;14871;52.702;5.230;2024-02-21T14:31:03;12.00;99.90
27413;DHT22;14871;52.702;5.230;2024-02-21T14:33:31;12.10;99.90
27413;DHT22;14871;52.702;5.230;2024-02-21T14:35:57;12.10;99.90
27413;DHT22;14871;52.702;5.230;2024-02-21T14:38:22;11.90;99.90
27413;DHT22;14871;52.702;5.230;2024-02-21T14:40:48;11.90;99.90
27413;DHT22;14871;52.702;5.230;2024-02-21T14:43:14;11.80;99.90
27413;DHT22;14871;52.702;5.230;2024-02-21T14:45:40;11.80;99.90
27413;DHT22;14871;52.702;5.230;2024-02-21T14:48:06;11.80;99.90
27413;DHT22;14871;52.702;5.230;2024-02-21T14:50:32;11.70;99.90
27413;DHT22;14871;52.702;5.230;2024-02-21T14:52:58;11.70;99.90
27413;DHT22;14871;52.702;5.230;2024-02-21T14:55:23;11.80;99.90
27413;DHT22;14871;52.702;5.230;2024-02-21T14:57:49;11.80;99.90
27413;DHT22;14871;52.702;5.230;2024-02-21T15:00:17;11.60;99.90
27413;DHT22;14871;52.702;5.230;2024-02-21T15:02:42;11.30;99.90
27413;DHT22;14871;52.702;5.230;2024-02-21T15:05:09;11.50;99.90
27413;DHT22;14871;52.702;5.230;2024-02-21T15:07:34;11.40;99.90
27413;DHT22;14871;52.702;5.230;2024-02-21T15:10:00;11.50;99.90
27413;DHT22;14871;52.702;5.230;2024-02-21T15:12:26;11.70;99.90
27413;DHT22;14871;52.702;5.230;2024-02-21T15:14:51;11.70;99.90
27413;DHT22;14871;52.702;5.230;2024-02-21T15:17:17;11.60;99.90
27413;DHT22;14871;52.702;5.230;2024-02-21T15:19:46;11.60;99.90
27413;DHT22;14871;52.702;5.230;2024-02-21T15:22:13;11.60;99.90
27413;DHT22;14871;52.702;5.230;2024-02-21T15:24:39;11.50;99.90
27413;DHT22;14871;52.702;5.230;2024-02-21T15:27:05;11.40;99.90
27413;DHT22;14871;52.702;5.230;2024-02-21T15:29:31;11.40;99.90